Time;durP1;ratioP1;P1;durP2;ratioP2;P2;SDS_P1;SDS_P2;PMS_P1;PMS_P2;Temp;Humidity;BMP_temperature;BMP_pressure;BME280_temperature;BME280_humidity;BME280_pressure;Samples;Min_cycle;Max_cycle;Signal;HPM_P1;HPM_P2
2021/08/21 00:01:48;;;;;;;0.00;0.00;;;;;;;;;;5016384;28;20222;-74
2021/08/21 00:04:17;;;;;;;0.00;0.00;;;;;;;;;;5018728;28;20228;-74
2021/08/21 00:06:44;;;;;;;0.00;0.00;;;;;;;;;;5019926;28;20216;-75
2021/08/21 00:09:13;;;;;;;0.00;0.00;;;;;;;;;;5016335;28;20199;-74
2021/08/21 00:11:40;;;;;;;0.00;0.00;;;;;;;;;;5016332;28;20204;-76
2021/08/21 00:14:08;;;;;;;0.00;0.00;;;;;;;;;;5016190;28;20200;-75
2021/08/21 00:16:35;;;;;;;0.00;0.00;;;;;;;;;;5021048;28;20206;-74
2021/08/21 00:19:05;;;;;;;0.00;0.00;;;;;;;;;;5019968;28;20200;-75
2021/08/21 00:21:34;;;;;;;0.00;0.00;;;;;;;;;;5016699;28;20591;-74
2021/08/21 00:24:01;;;;;;;0.00;0.00;;;;;;;;;;5016124;28;20215;-75
2021/08/21 00:26:28;;;;;;;0.00;0.00;;;;;;;;;;5020951;28;20209;-74
2021/08/21 00:28:56;;;;;;;0.00;0.00;;;;;;;;;;5016697;28;20197;-74
2021/08/21 00:31:24;;;;;;;0.00;0.00;;;;;;;;;;5017161;28;20203;-74
2021/08/21 00:33:51;;;;;;;0.00;0.00;;;;;;;;;;5019071;28;20232;-75
2021/08/21 00:36:18;;;;;;;0.00;0.00;;;;;;;;;;5018832;28;20251;-75
2021/08/21 00:38:47;;;;;;;0.00;0.00;;;;;;;;;;5015236;28;20204;-74
2021/08/21 00:41:15;;;;;;;0.00;0.00;;;;;;;;;;5014109;28;20205;-76
2021/08/21 00:43:42;;;;;;;0.00;0.00;;;;;;;;;;5020674;28;20197;-75
2021/08/21 00:46:09;;;;;;;0.00;0.00;;;;;;;;;;5016637;28;20200;-74
2021/08/21 00:48:37;;;;;;;0.00;0.00;;;;;;;;;;5015785;28;20212;-75
2021/08/21 00:51:05;;;;;;;0.00;0.00;;;;;;;;;;5018202;28;20209;-74
2021/08/21 00:53:33;;;;;;;0.00;0.00;;;;;;;;;;5017887;28;20705;-77
2021/08/21 00:56:02;;;;;;;0.00;0.00;;;;;;;;;;5018801;28;20219;-75
2021/08/21 00:58:29;;;;;;;0.00;0.00;;;;;;;;;;5023630;28;20212;-74
2021/08/21 01:00:57;;;;;;;0.00;0.00;;;;;;;;;;5015719;28;20670;-77
2021/08/21 01:03:24;;;;;;;0.00;0.00;;;;;;;;;;5016324;28;20731;-75
2021/08/21 01:05:52;;;;;;;0.00;0.00;;;;;;;;;;5023705;28;20244;-77
2021/08/21 01:08:19;;;;;;;0.00;0.00;;;;;;;;;;5021033;28;20212;-75
2021/08/21 01:10:47;;;;;;;0.00;0.00;;;;;;;;;;5018737;28;20747;-76
2021/08/21 01:13:16;;;;;;;0.00;0.00;;;;;;;;;;5014400;28;20228;-75
2021/08/21 01:15:44;;;;;;;0.00;0.00;;;;;;;;;;5014468;28;20550;-75
2021/08/21 01:18:12;;;;;;;0.00;0.00;;;;;;;;;;5017547;28;20648;-75
2021/08/21 01:20:40;;;;;;;0.00;0.00;;;;;;;;;;5014642;28;20229;-75
2021/08/21 01:23:07;;;;;;;0.00;0.00;;;;;;;;;;5016570;28;21006;-75
2021/08/21 01:25:35;;;;;;;0.00;0.00;;;;;;;;;;5017324;28;20204;-76
2021/08/21 01:28:04;;;;;;;0.00;0.00;;;;;;;;;;5019152;28;20209;-77
2021/08/21 01:30:31;;;;;;;0.00;0.00;;;;;;;;;;5016628;28;20472;-75
2021/08/21 01:32:59;;;;;;;0.00;0.00;;;;;;;;;;5019133;28;20229;-74
2021/08/21 01:35:26;;;;;;;0.00;0.00;;;;;;;;;;5022472;28;20204;-74
2021/08/21 01:37:54;;;;;;;0.00;0.00;;;;;;;;;;5016852;28;20209;-74
2021/08/21 01:40:21;;;;;;;0.00;0.00;;;;;;;;;;5015174;28;20304;-74
2021/08/21 01:42:48;;;;;;;0.00;0.00;;;;;;;;;;5020706;28;20208;-74
2021/08/21 01:45:17;;;;;;;0.00;0.00;;;;;;;;;;5018542;28;20201;-76
2021/08/21 01:47:48;;;;;;;0.00;0.00;;;;;;;;;;5019673;28;20212;-76
2021/08/21 01:50:18;;;;;;;0.00;0.00;;;;;;;;;;5017207;28;20212;-75
2021/08/21 01:52:47;;;;;;;0.00;0.00;;;;;;;;;;5016706;28;20597;-75
2021/08/21 01:55:14;;;;;;;0.00;0.00;;;;;;;;;;5021936;28;20769;-74
2021/08/21 01:57:42;;;;;;;0.00;0.00;;;;;;;;;;5021002;28;20202;-75
2021/08/21 02:00:10;;;;;;;0.00;0.00;;;;;;;;;;5020360;28;20208;-74
2021/08/21 02:02:40;;;;;;;0.00;0.00;;;;;;;;;;5019516;28;20209;-75
2021/08/21 02:05:08;;;;;;;0.00;0.00;;;;;;;;;;5032100;28;20735;-75
2021/08/21 02:07:36;;;;;;;0.00;0.00;;;;;;;;;;5038793;28;20203;-75
2021/08/21 02:10:04;;;;;;;0.00;0.00;;;;;;;;;;5038635;28;20212;-75
2021/08/21 02:12:33;;;;;;;0.00;0.00;;;;;;;;;;5037411;28;20703;-75
2021/08/21 02:15:00;;;;;;;0.00;0.00;;;;;;;;;;5037779;28;20223;-74
2021/08/21 02:17:27;;;;;;;0.00;0.00;;;;;;;;;;5037607;28;20208;-74
2021/08/21 02:19:56;;;;;;;0.00;0.00;;;;;;;;;;5038629;28;20277;-74
2021/08/21 02:22:23;;;;;;;0.00;0.00;;;;;;;;;;5035634;28;20211;-74
2021/08/21 02:24:55;;;;;;;0.00;0.00;;;;;;;;;;5038894;28;20681;-74
2021/08/21 02:27:25;;;;;;;0.00;0.00;;;;;;;;;;5037095;28;20290;-74
2021/08/21 02:29:52;;;;;;;0.00;0.00;;;;;;;;;;5040298;28;20204;-76
2021/08/21 02:32:20;;;;;;;0.00;0.00;;;;;;;;;;5037570;28;20214;-75
2021/08/21 02:34:47;;;;;;;0.00;0.00;;;;;;;;;;5037958;28;20634;-75
2021/08/21 02:37:19;;;;;;;0.00;0.00;;;;;;;;;;5034341;28;20556;-75
2021/08/21 02:39:47;;;;;;;0.00;0.00;;;;;;;;;;5036039;28;20214;-76
2021/08/21 02:42:14;;;;;;;0.00;0.00;;;;;;;;;;5038448;28;20214;-75
2021/08/21 02:44:42;;;;;;;0.00;0.00;;;;;;;;;;5039920;28;20554;-75
2021/08/21 02:47:09;;;;;;;0.00;0.00;;;;;;;;;;5036143;28;20199;-76
2021/08/21 02:49:37;;;;;;;0.00;0.00;;;;;;;;;;5038041;28;21169;-76
2021/08/21 02:52:04;;;;;;;0.00;0.00;;;;;;;;;;5035670;28;20599;-76
2021/08/21 02:54:33;;;;;;;0.00;0.00;;;;;;;;;;5035239;28;20232;-75
2021/08/21 02:57:00;;;;;;;0.00;0.00;;;;;;;;;;5036230;28;20204;-76
2021/08/21 02:59:28;;;;;;;0.00;0.00;;;;;;;;;;5036552;28;20195;-75
2021/08/21 03:01:55;;;;;;;0.00;0.00;;;;;;;;;;5037958;28;20223;-76
2021/08/21 03:04:22;;;;;;;0.00;0.00;;;;;;;;;;5035182;28;20235;-75
2021/08/21 03:06:50;;;;;;;0.00;0.00;;;;;;;;;;5037038;28;20208;-75
2021/08/21 03:09:17;;;;;;;0.00;0.00;;;;;;;;;;5038053;28;20204;-75
2021/08/21 03:11:46;;;;;;;0.00;0.00;;;;;;;;;;5035696;28;20219;-75
2021/08/21 03:14:13;;;;;;;0.00;0.00;;;;;;;;;;5034626;28;20676;-76
2021/08/21 03:16:41;;;;;;;0.00;0.00;;;;;;;;;;5037002;28;20204;-75
2021/08/21 03:19:08;;;;;;;0.00;0.00;;;;;;;;;;5035302;28;20219;-76
2021/08/21 03:21:35;;;;;;;0.00;0.00;;;;;;;;;;5037555;28;20207;-75
2021/08/21 03:24:03;;;;;;;0.00;0.00;;;;;;;;;;5034990;28;20219;-75
2021/08/21 03:26:30;;;;;;;0.00;0.00;;;;;;;;;;5037774;28;20218;-75
2021/08/21 03:28:59;;;;;;;0.00;0.00;;;;;;;;;;5038331;28;20237;-75
2021/08/21 03:31:26;;;;;;;0.00;0.00;;;;;;;;;;5036483;28;20203;-76
2021/08/21 03:33:53;;;;;;;0.00;0.00;;;;;;;;;;5027061;28;20716;-75
2021/08/21 03:36:21;;;;;;;0.00;0.00;;;;;;;;;;5034635;28;20200;-76
2021/08/21 03:38:48;;;;;;;0.00;0.00;;;;;;;;;;5038069;28;20227;-75
2021/08/21 03:41:15;;;;;;;0.00;0.00;;;;;;;;;;5036373;28;20203;-75
2021/08/21 03:43:43;;;;;;;0.00;0.00;;;;;;;;;;5037303;28;20672;-76
2021/08/21 03:46:12;;;;;;;0.00;0.00;;;;;;;;;;5036602;28;20566;-75
2021/08/21 03:48:39;;;;;;;0.00;0.00;;;;;;;;;;5037840;28;20208;-75
2021/08/21 03:51:06;;;;;;;0.00;0.00;;;;;;;;;;5035498;28;20219;-75
2021/08/21 03:53:34;;;;;;;0.00;0.00;;;;;;;;;;5035281;28;20238;-75
2021/08/21 03:56:01;;;;;;;0.00;0.00;;;;;;;;;;5036000;28;21855;-76
2021/08/21 03:58:28;;;;;;;0.00;0.00;;;;;;;;;;5037019;28;20211;-76
2021/08/21 04:00:56;;;;;;;0.00;0.00;;;;;;;;;;5036735;28;20575;-75
2021/08/21 04:03:24;;;;;;;0.00;0.00;;;;;;;;;;5037601;28;20222;-75
2021/08/21 04:05:52;;;;;;;0.00;0.00;;;;;;;;;;5039409;28;20230;-77
2021/08/21 04:08:19;;;;;;;0.00;0.00;;;;;;;;;;5037787;28;20211;-76
2021/08/21 04:10:46;;;;;;;0.00;0.00;;;;;;;;;;5035076;28;20215;-76
2021/08/21 04:13:14;;;;;;;0.00;0.00;;;;;;;;;;5038109;28;20232;-76
2021/08/21 04:15:41;;;;;;;0.00;0.00;;;;;;;;;;5035000;28;20604;-75
2021/08/21 04:18:08;;;;;;;0.00;0.00;;;;;;;;;;5035711;28;20234;-74
2021/08/21 04:20:37;;;;;;;0.00;0.00;;;;;;;;;;5035519;28;20199;-76
2021/08/21 04:23:04;;;;;;;0.00;0.00;;;;;;;;;;5035667;28;20258;-76
2021/08/21 04:25:32;;;;;;;0.00;0.00;;;;;;;;;;5038470;28;20204;-76
2021/08/21 04:27:59;;;;;;;0.00;0.00;;;;;;;;;;5031788;28;20581;-76
2021/08/21 04:30:26;;;;;;;0.00;0.00;;;;;;;;;;5037454;28;20755;-76
2021/08/21 04:32:54;;;;;;;0.00;0.00;;;;;;;;;;5035489;28;20219;-75
2021/08/21 04:35:21;;;;;;;0.00;0.00;;;;;;;;;;5034004;28;20913;-76
2021/08/21 04:37:50;;;;;;;0.00;0.00;;;;;;;;;;5033814;28;20200;-76
2021/08/21 04:40:20;;;;;;;0.00;0.00;;;;;;;;;;5037708;28;20210;-76
2021/08/21 04:42:48;;;;;;;2.93;2.83;;;;;;;;;;5035132;28;20283;-75
2021/08/21 04:45:15;;;;;;;0.00;0.00;;;;;;;;;;5036000;28;20278;-74
2021/08/21 04:47:42;;;;;;;0.00;0.00;;;;;;;;;;5037079;28;20283;-75
2021/08/21 04:50:10;;;;;;;0.00;0.00;;;;;;;;;;5034772;28;20199;-75
2021/08/21 04:52:37;;;;;;;0.00;0.00;;;;;;;;;;5035816;28;20573;-76
2021/08/21 04:55:06;;;;;;;0.00;0.00;;;;;;;;;;5034402;28;20242;-75
2021/08/21 04:57:34;;;;;;;0.00;0.00;;;;;;;;;;5035626;28;20677;-75
2021/08/21 05:00:02;;;;;;;0.00;0.00;;;;;;;;;;5034585;28;20661;-76
2021/08/21 05:02:30;;;;;;;0.10;0.10;;;;;;;;;;5033149;28;20573;-76
2021/08/21 05:04:57;;;;;;;0.00;0.00;;;;;;;;;;5034454;28;21315;-76
2021/08/21 05:07:24;;;;;;;0.00;0.00;;;;;;;;;;5035937;28;20241;-76
2021/08/21 05:09:52;;;;;;;0.00;0.00;;;;;;;;;;5034600;28;20210;-76
2021/08/21 05:12:20;;;;;;;0.00;0.00;;;;;;;;;;5035058;28;20199;-77
2021/08/21 05:14:48;;;;;;;0.00;0.00;;;;;;;;;;5031014;28;20232;-77
2021/08/21 05:17:15;;;;;;;0.00;0.00;;;;;;;;;;5032122;28;20207;-74
2021/08/21 05:19:48;;;;;;;0.00;0.00;;;;;;;;;;5032303;28;20234;-77
2021/08/21 05:22:25;;;;;;;0.00;0.00;;;;;;;;;;5035859;28;20204;-73
2021/08/21 05:24:52;;;;;;;0.00;0.00;;;;;;;;;;5034136;28;20201;-76
2021/08/21 05:27:21;;;;;;;0.00;0.00;;;;;;;;;;5036791;28;20204;-76
2021/08/21 05:29:49;;;;;;;0.00;0.00;;;;;;;;;;5041130;28;20230;-77
2021/08/21 05:32:16;;;;;;;0.00;0.00;;;;;;;;;;5040722;28;20210;-76
2021/08/21 05:34:44;;;;;;;0.00;0.00;;;;;;;;;;5038968;28;20231;-75
2021/08/21 05:37:11;;;;;;;0.00;0.00;;;;;;;;;;5035981;28;20195;-75
2021/08/21 05:39:38;;;;;;;0.00;0.00;;;;;;;;;;5037303;28;20675;-75
2021/08/21 05:42:06;;;;;;;0.00;0.00;;;;;;;;;;5037185;28;20219;-75
2021/08/21 05:44:34;;;;;;;0.00;0.00;;;;;;;;;;5036934;28;20702;-74
2021/08/21 05:47:02;;;;;;;0.00;0.00;;;;;;;;;;5037292;28;20585;-75
2021/08/21 05:49:29;;;;;;;0.00;0.00;;;;;;;;;;5038008;28;20196;-78
2021/08/21 05:51:57;;;;;;;0.00;0.00;;;;;;;;;;5039304;28;20207;-76
2021/08/21 05:54:24;;;;;;;0.00;0.00;;;;;;;;;;5036720;28;21643;-75
2021/08/21 05:56:51;;;;;;;0.00;0.00;;;;;;;;;;5036116;28;20231;-75
2021/08/21 05:59:19;;;;;;;0.00;0.00;;;;;;;;;;5042452;28;20576;-76
2021/08/21 06:01:48;;;;;;;0.00;0.00;;;;;;;;;;5039716;28;20204;-76
2021/08/21 06:04:15;;;;;;;0.00;0.00;;;;;;;;;;5037355;28;20231;-75
2021/08/21 06:06:42;;;;;;;0.00;0.00;;;;;;;;;;5037510;28;20206;-75
2021/08/21 06:09:10;;;;;;;0.00;0.00;;;;;;;;;;5038411;28;20204;-76
2021/08/21 06:11:37;;;;;;;0.00;0.00;;;;;;;;;;5037355;28;20208;-77
2021/08/21 06:14:04;;;;;;;0.00;0.00;;;;;;;;;;5036403;28;20674;-76
2021/08/21 06:16:32;;;;;;;0.00;0.00;;;;;;;;;;5039463;28;20196;-75
2021/08/21 06:19:01;;;;;;;0.00;0.00;;;;;;;;;;5036972;28;20204;-76
2021/08/21 06:21:28;;;;;;;0.00;0.00;;;;;;;;;;5036228;28;20201;-79
2021/08/21 06:23:55;;;;;;;0.00;0.00;;;;;;;;;;5038715;28;20210;-73
2021/08/21 06:26:23;;;;;;;0.00;0.00;;;;;;;;;;5035723;28;20625;-73
2021/08/21 06:28:50;;;;;;;0.00;0.00;;;;;;;;;;5040128;28;20199;-75
2021/08/21 06:31:17;;;;;;;0.00;0.00;;;;;;;;;;5041884;28;20660;-75
2021/08/21 06:33:45;;;;;;;0.00;0.00;;;;;;;;;;5049804;28;20570;-74
2021/08/21 06:36:14;;;;;;;0.00;0.00;;;;;;;;;;5043907;28;20303;-75
2021/08/21 06:38:41;;;;;;;0.00;0.00;;;;;;;;;;5046120;28;20203;-74
2021/08/21 06:41:08;;;;;;;0.00;0.00;;;;;;;;;;5047472;28;20207;-75
2021/08/21 06:43:36;;;;;;;0.00;0.00;;;;;;;;;;5047122;28;20688;-73
2021/08/21 06:46:03;;;;;;;0.00;0.00;;;;;;;;;;5044489;28;20200;-76
2021/08/21 06:48:32;;;;;;;0.00;0.00;;;;;;;;;;5051619;28;20211;-73
2021/08/21 06:50:59;;;;;;;0.00;0.00;;;;;;;;;;5043133;28;20207;-76
2021/08/21 06:53:29;;;;;;;0.00;0.00;;;;;;;;;;5042772;28;20231;-74
2021/08/21 06:56:01;;;;;;;0.00;0.00;;;;;;;;;;5047689;28;20285;-73
2021/08/21 06:58:28;;;;;;;0.00;0.00;;;;;;;;;;5044806;28;20214;-73
2021/08/21 07:00:56;;;;;;;0.00;0.00;;;;;;;;;;5044511;28;20211;-77
2021/08/21 07:03:23;;;;;;;0.00;0.00;;;;;;;;;;5051459;28;20203;-78
2021/08/21 07:05:51;;;;;;;0.00;0.00;;;;;;;;;;5038932;28;20231;-77
2021/08/21 07:08:18;;;;;;;0.00;0.00;;;;;;;;;;5040668;28;20230;-78
2021/08/21 07:10:47;;;;;;;0.00;0.00;;;;;;;;;;5048924;28;20204;-78
2021/08/21 07:13:14;;;;;;;1.20;1.20;;;;;;;;;;5035135;28;20196;-77
2021/08/21 07:15:42;;;;;;;0.00;0.00;;;;;;;;;;5042636;28;20220;-77
2021/08/21 07:18:09;;;;;;;0.00;0.00;;;;;;;;;;5044478;28;20574;-77
2021/08/21 07:20:37;;;;;;;0.00;0.00;;;;;;;;;;5048432;28;20206;-76
2021/08/21 07:23:04;;;;;;;0.00;0.00;;;;;;;;;;5042090;28;20200;-79
2021/08/21 07:25:32;;;;;;;0.00;0.00;;;;;;;;;;5044307;28;20204;-78
2021/08/21 07:28:01;;;;;;;0.00;0.00;;;;;;;;;;5040519;28;20234;-77
2021/08/21 07:30:28;;;;;;;0.00;0.00;;;;;;;;;;5051189;28;20199;-78
2021/08/21 07:32:55;;;;;;;0.00;0.00;;;;;;;;;;5042456;28;20214;-78
2021/08/21 07:35:23;;;;;;;0.00;0.00;;;;;;;;;;5042429;28;20599;-77
2021/08/21 07:37:50;;;;;;;0.00;0.00;;;;;;;;;;5046285;28;20195;-77
2021/08/21 07:40:18;;;;;;;0.00;0.00;;;;;;;;;;5046963;28;20680;-77
2021/08/21 07:42:45;;;;;;;0.00;0.00;;;;;;;;;;5039634;28;20293;-77
2021/08/21 07:45:14;;;;;;;3.05;2.75;;;;;;;;;;5041527;28;20208;-77
2021/08/21 07:47:42;;;;;;;0.00;0.00;;;;;;;;;;5035678;28;20203;-78
2021/08/21 07:50:10;;;;;;;0.00;0.00;;;;;;;;;;5040220;28;20617;-78
2021/08/21 07:52:37;;;;;;;0.10;0.10;;;;;;;;;;5033563;28;20193;-79
2021/08/21 07:55:05;;;;;;;0.00;0.00;;;;;;;;;;5032960;28;20238;-79
2021/08/21 07:57:32;;;;;;;0.00;0.00;;;;;;;;;;5032644;28;20219;-78
2021/08/21 08:00:00;;;;;;;0.00;0.00;;;;;;;;;;5034226;28;20236;-78
2021/08/21 08:02:28;;;;;;;0.00;0.00;;;;;;;;;;5036174;28;20616;-78
2021/08/21 08:04:56;;;;;;;0.00;0.00;;;;;;;;;;5041389;28;20242;-78
2021/08/21 08:07:23;;;;;;;0.00;0.00;;;;;;;;;;5033322;28;20200;-77
2021/08/21 08:09:51;;;;;;;0.00;0.00;;;;;;;;;;5039335;28;20508;-79
2021/08/21 08:12:18;;;;;;;0.00;0.00;;;;;;;;;;5037442;28;20300;-77
2021/08/21 08:14:45;;;;;;;0.00;0.00;;;;;;;;;;5038468;28;20253;-77
2021/08/21 08:17:13;;;;;;;0.00;0.00;;;;;;;;;;5041367;28;20218;-78
2021/08/21 08:19:41;;;;;;;0.00;0.00;;;;;;;;;;5040138;28;20195;-76
2021/08/21 08:22:09;;;;;;;0.00;0.00;;;;;;;;;;5033040;28;20577;-78
2021/08/21 08:24:36;;;;;;;0.03;0.03;;;;;;;;;;5030836;28;20214;-78
2021/08/21 08:27:04;;;;;;;0.00;0.00;;;;;;;;;;5039051;28;20657;-78
2021/08/21 08:29:31;;;;;;;0.00;0.00;;;;;;;;;;5033416;28;20208;-79
2021/08/21 08:31:58;;;;;;;0.00;0.00;;;;;;;;;;5032505;28;20697;-79
2021/08/21 08:34:26;;;;;;;0.00;0.00;;;;;;;;;;5043495;28;20200;-78
2021/08/21 08:36:55;;;;;;;0.00;0.00;;;;;;;;;;5037311;28;20200;-79
2021/08/21 08:39:22;;;;;;;0.00;0.00;;;;;;;;;;5039174;28;20207;-80
2021/08/21 08:41:50;;;;;;;0.00;0.00;;;;;;;;;;5037264;28;20640;-80
2021/08/21 08:44:18;;;;;;;0.00;0.00;;;;;;;;;;5034913;28;20205;-78
2021/08/21 08:46:46;;;;;;;0.00;0.00;;;;;;;;;;5029215;28;20691;-78
2021/08/21 08:49:15;;;;;;;0.00;0.00;;;;;;;;;;5041085;28;20206;-83
2021/08/21 08:51:43;;;;;;;0.00;0.00;;;;;;;;;;5041467;28;20207;-83
2021/08/21 08:54:12;;;;;;;0.00;0.00;;;;;;;;;;5033631;28;20200;-77
2021/08/21 08:56:39;;;;;;;0.00;0.00;;;;;;;;;;5031252;28;20232;-78
2021/08/21 08:59:07;;;;;;;0.00;0.00;;;;;;;;;;5036561;28;20218;-84
2021/08/21 09:01:34;;;;;;;0.00;0.00;;;;;;;;;;5034420;28;20301;-77
2021/08/21 09:04:15;;;;;;;0.00;0.00;;;;;;;;;;5035236;28;20353;-84
2021/08/21 09:06:43;;;;;;;0.00;0.00;;;;;;;;;;5036738;28;20202;-80
2021/08/21 09:09:12;;;;;;;0.00;0.00;;;;;;;;;;5032139;28;20226;-79
2021/08/21 09:11:44;;;;;;;0.00;0.00;;;;;;;;;;5037293;28;20215;-78
2021/08/21 09:14:22;;;;;;;0.00;0.00;;;;;;;;;;5037816;28;20285;-80
2021/08/21 09:16:50;;;;;;;0.00;0.00;;;;;;;;;;5038802;28;20319;-78
2021/08/21 09:19:24;;;;;;;0.00;0.00;;;;;;;;;;5043476;28;20553;-79
2021/08/21 09:22:06;;;;;;;0.20;0.20;;;;;;;;;;5040232;28;20657;-78
2021/08/21 09:24:36;;;;;;;0.00;0.00;;;;;;;;;;5044657;28;20537;-80
2021/08/21 09:27:20;;;;;;;0.00;0.00;;;;;;;;;;5039159;28;20200;-79
2021/08/21 09:29:49;;;;;;;0.00;0.00;;;;;;;;;;5033072;28;20210;-80
2021/08/21 09:32:16;;;;;;;0.00;0.00;;;;;;;;;;5032652;28;20286;-79
2021/08/21 09:34:49;;;;;;;0.00;0.00;;;;;;;;;;5037777;28;20207;-79
2021/08/21 09:37:19;;;;;;;0.00;0.00;;;;;;;;;;5036499;28;20200;-77
2021/08/21 09:39:48;;;;;;;0.00;0.00;;;;;;;;;;5029692;28;20262;-78
2021/08/21 09:42:15;;;;;;;0.00;0.00;;;;;;;;;;5039837;28;20204;-78
2021/08/21 09:44:44;;;;;;;0.00;0.00;;;;;;;;;;5047833;28;20203;-78
2021/08/21 09:47:22;;;;;;;0.00;0.00;;;;;;;;;;5042738;28;20205;-77
2021/08/21 09:49:49;;;;;;;0.00;0.00;;;;;;;;;;5042315;28;20699;-77
2021/08/21 09:52:18;;;;;;;0.00;0.00;;;;;;;;;;5049801;28;20195;-78
2021/08/21 09:54:46;;;;;;;0.10;0.10;;;;;;;;;;5043846;28;20249;-77
2021/08/21 09:57:22;;;;;;;0.00;0.00;;;;;;;;;;5044325;28;20303;-78
2021/08/21 09:59:57;;;;;;;0.00;0.00;;;;;;;;;;5032765;28;20683;-77
2021/08/21 10:02:25;;;;;;;0.00;0.00;;;;;;;;;;5044562;28;20652;-78
2021/08/21 10:04:54;;;;;;;0.00;0.00;;;;;;;;;;5042826;28;20261;-78
2021/08/21 10:07:24;;;;;;;0.00;0.00;;;;;;;;;;5046522;28;20651;-79
2021/08/21 10:09:53;;;;;;;0.00;0.00;;;;;;;;;;5046846;28;20548;-75
2021/08/21 10:12:22;;;;;;;0.00;0.00;;;;;;;;;;5041862;28;20548;-74
2021/08/21 10:14:50;;;;;;;0.00;0.00;;;;;;;;;;5048116;28;20192;-82
2021/08/21 10:17:18;;;;;;;0.00;0.00;;;;;;;;;;5049014;28;20636;-79
2021/08/21 10:19:47;;;;;;;0.00;0.00;;;;;;;;;;5042791;28;20530;-77
2021/08/21 10:22:15;;;;;;;0.00;0.00;;;;;;;;;;5042116;28;20665;-76
2021/08/21 10:24:43;;;;;;;0.00;0.00;;;;;;;;;;5051045;28;20200;-79
2021/08/21 10:27:12;;;;;;;0.00;0.00;;;;;;;;;;5046877;28;20602;-77
2021/08/21 10:29:41;;;;;;;0.00;0.00;;;;;;;;;;5047069;28;20286;-77
2021/08/21 10:32:29;;;;;;;0.13;0.08;;;;;;;;;;5048326;28;20200;-77
2021/08/21 10:34:57;;;;;;;0.00;0.00;;;;;;;;;;5046646;28;20203;-79
2021/08/21 10:37:34;;;;;;;0.35;0.20;;;;;;;;;;5047026;28;20204;-77
2021/08/21 10:40:28;;;;;;;0.00;0.00;;;;;;;;;;5048383;28;20671;-76
2021/08/21 10:42:56;;;;;;;0.00;0.00;;;;;;;;;;5050834;28;20287;-78
2021/08/21 10:45:38;;;;;;;0.00;0.00;;;;;;;;;;5043497;28;20302;-78
2021/08/21 10:48:07;;;;;;;0.00;0.00;;;;;;;;;;5036339;28;20681;-78
2021/08/21 10:50:35;;;;;;;0.00;0.00;;;;;;;;;;5033531;28;20196;-77
2021/08/21 10:53:04;;;;;;;0.00;0.00;;;;;;;;;;5049360;28;20204;-79
2021/08/21 10:55:39;;;;;;;0.00;0.00;;;;;;;;;;5038025;28;20700;-78
2021/08/21 10:58:14;;;;;;;0.00;0.00;;;;;;;;;;5043404;28;20745;-81
2021/08/21 11:00:52;;;;;;;0.00;0.00;;;;;;;;;;5036078;28;20208;-81
2021/08/21 11:03:41;;;;;;;0.00;0.00;;;;;;;;;;5044065;28;20549;-81
2021/08/21 11:06:10;;;;;;;0.00;0.00;;;;;;;;;;5017901;28;20288;-80
2021/08/21 11:08:53;;;;;;;0.00;0.00;;;;;;;;;;5024666;28;20200;-81
2021/08/21 11:11:24;;;;;;;0.00;0.00;;;;;;;;;;5024392;28;20661;-81
2021/08/21 11:13:56;;;;;;;0.00;0.00;;;;;;;;;;5018089;28;20335;-81
2021/08/21 11:16:24;;;;;;;0.00;0.00;;;;;;;;;;5028295;28;20611;-81
2021/08/21 11:18:53;;;;;;;0.00;0.00;;;;;;;;;;5023872;28;20220;-82
2021/08/21 11:21:34;;;;;;;0.00;0.00;;;;;;;;;;5017146;28;20203;-81
2021/08/21 11:24:02;;;;;;;0.00;0.00;;;;;;;;;;5013920;28;20208;-78
2021/08/21 11:26:29;;;;;;;0.00;0.00;;;;;;;;;;5024597;28;20632;-79
2021/08/21 11:29:17;;;;;;;0.00;0.00;;;;;;;;;;5025130;28;20266;-79
2021/08/21 11:31:55;;;;;;;0.00;0.00;;;;;;;;;;5015006;28;21255;-79
2021/08/21 11:34:23;;;;;;;0.00;0.00;;;;;;;;;;5044430;28;20200;-80
2021/08/21 11:36:54;;;;;;;0.00;0.00;;;;;;;;;;5024085;28;20226;-78
2021/08/21 11:39:21;;;;;;;0.00;0.00;;;;;;;;;;5021528;28;20212;-80
2021/08/21 11:41:55;;;;;;;0.00;0.00;;;;;;;;;;5025103;28;20568;-79
2021/08/21 11:44:30;;;;;;;0.00;0.00;;;;;;;;;;5025198;28;20704;-80
2021/08/21 11:47:10;;;;;;;0.00;0.00;;;;;;;;;;5015608;28;20204;-78
2021/08/21 11:49:38;;;;;;;0.00;0.00;;;;;;;;;;5025350;28;20208;-79
2021/08/21 11:52:07;;;;;;;0.00;0.00;;;;;;;;;;5025539;28;20208;-78
2021/08/21 11:54:34;;;;;;;0.10;0.10;;;;;;;;;;5013647;28;20227;-81
2021/08/21 11:57:02;;;;;;;0.00;0.00;;;;;;;;;;5012002;28;20227;-78
2021/08/21 11:59:30;;;;;;;0.00;0.00;;;;;;;;;;5023455;28;20211;-80
2021/08/21 12:02:04;;;;;;;0.00;0.00;;;;;;;;;;5021289;28;20252;-79
2021/08/21 12:04:33;;;;;;;0.00;0.00;;;;;;;;;;5034180;28;20242;-80
2021/08/21 12:07:00;;;;;;;0.00;0.00;;;;;;;;;;5044875;28;20571;-77
2021/08/21 12:09:29;;;;;;;0.00;0.00;;;;;;;;;;5043081;28;20226;-76
2021/08/21 12:11:57;;;;;;;0.10;0.10;;;;;;;;;;5033595;28;20214;-77
2021/08/21 12:14:26;;;;;;;0.20;0.20;;;;;;;;;;5033982;28;20203;-77
2021/08/21 12:16:56;;;;;;;0.00;0.00;;;;;;;;;;5040887;28;20223;-77
2021/08/21 12:19:25;;;;;;;0.00;0.00;;;;;;;;;;5033369;28;20322;-77
2021/08/21 12:21:56;;;;;;;0.00;0.00;;;;;;;;;;5032931;28;20234;-77
2021/08/21 12:24:23;;;;;;;0.03;0.03;;;;;;;;;;5039005;28;20200;-80
2021/08/21 12:26:52;;;;;;;0.00;0.00;;;;;;;;;;5036569;28;20215;-77
2021/08/21 12:29:24;;;;;;;0.00;0.00;;;;;;;;;;5042432;28;20211;-77
2021/08/21 12:31:51;;;;;;;0.00;0.00;;;;;;;;;;5048197;28;20203;-75
2021/08/21 12:34:19;;;;;;;0.00;0.00;;;;;;;;;;5030768;28;20200;-76
2021/08/21 12:36:48;;;;;;;0.00;0.00;;;;;;;;;;5034052;28;20815;-77
2021/08/21 12:39:16;;;;;;;0.00;0.00;;;;;;;;;;5037931;28;20573;-80
2021/08/21 12:41:50;;;;;;;0.00;0.00;;;;;;;;;;5039042;28;20193;-78
2021/08/21 12:44:20;;;;;;;0.00;0.00;;;;;;;;;;5037910;28;20213;-77
2021/08/21 12:46:54;;;;;;;0.00;0.00;;;;;;;;;;5036357;28;20204;-78
2021/08/21 12:49:29;;;;;;;0.30;0.30;;;;;;;;;;5033383;28;20193;-78
2021/08/21 12:51:57;;;;;;;0.00;0.00;;;;;;;;;;5030236;28;20191;-77
2021/08/21 12:54:29;;;;;;;0.00;0.00;;;;;;;;;;5029963;28;20200;-78
2021/08/21 12:57:06;;;;;;;0.00;0.00;;;;;;;;;;5036459;28;20711;-78
2021/08/21 12:59:35;;;;;;;0.00;0.00;;;;;;;;;;5036358;28;20207;-77
2021/08/21 13:02:03;;;;;;;0.00;0.00;;;;;;;;;;5041715;28;20305;-77
2021/08/21 13:04:31;;;;;;;0.00;0.00;;;;;;;;;;5037240;28;20281;-77
2021/08/21 13:07:02;;;;;;;0.00;0.00;;;;;;;;;;5036411;28;20254;-79
2021/08/21 13:09:30;;;;;;;0.00;0.00;;;;;;;;;;5041837;28;20199;-77
2021/08/21 13:11:58;;;;;;;0.00;0.00;;;;;;;;;;5036780;28;20201;-77
2021/08/21 13:14:26;;;;;;;0.00;0.00;;;;;;;;;;5029446;28;20196;-77
2021/08/21 13:16:56;;;;;;;0.00;0.00;;;;;;;;;;5033558;28;20230;-76
2021/08/21 13:19:24;;;;;;;0.00;0.00;;;;;;;;;;5047503;28;20207;-76
2021/08/21 13:21:52;;;;;;;0.00;0.00;;;;;;;;;;5043187;28;20257;-77
2021/08/21 13:24:19;;;;;;;0.00;0.00;;;;;;;;;;5040895;28;20639;-78
2021/08/21 13:26:47;;;;;;;0.00;0.00;;;;;;;;;;5046197;28;20208;-75
2021/08/21 13:29:14;;;;;;;0.00;0.00;;;;;;;;;;5039508;28;20200;-76
2021/08/21 13:31:42;;;;;;;0.00;0.00;;;;;;;;;;5039901;28;20575;-76
2021/08/21 13:34:11;;;;;;;0.00;0.00;;;;;;;;;;5042875;28;20242;-76
2021/08/21 13:36:39;;;;;;;0.00;0.00;;;;;;;;;;5036613;28;20233;-76
2021/08/21 13:39:07;;;;;;;0.00;0.00;;;;;;;;;;5042471;28;20195;-77
2021/08/21 13:41:34;;;;;;;0.00;0.00;;;;;;;;;;5042333;28;20210;-75
2021/08/21 13:44:02;;;;;;;0.00;0.00;;;;;;;;;;5043542;28;20204;-76
2021/08/21 13:46:30;;;;;;;0.00;0.00;;;;;;;;;;5044733;28;20640;-75
2021/08/21 13:49:00;;;;;;;0.00;0.00;;;;;;;;;;5044026;28;20581;-76
2021/08/21 13:51:28;;;;;;;0.00;0.00;;;;;;;;;;5046433;28;20273;-75
2021/08/21 13:53:56;;;;;;;0.00;0.00;;;;;;;;;;5049047;28;20204;-75
2021/08/21 13:56:23;;;;;;;0.00;0.00;;;;;;;;;;5046425;28;20231;-76
2021/08/21 13:58:51;;;;;;;0.00;0.00;;;;;;;;;;5039534;28;20212;-75
2021/08/21 14:01:18;;;;;;;0.00;0.00;;;;;;;;;;5051954;28;20208;-75
2021/08/21 14:03:45;;;;;;;0.00;0.00;;;;;;;;;;5036760;28;20291;-76
2021/08/21 14:06:13;;;;;;;0.00;0.00;;;;;;;;;;5043199;28;20204;-76
2021/08/21 14:08:42;;;;;;;0.00;0.00;;;;;;;;;;5050793;28;20207;-75
2021/08/21 14:11:09;;;;;;;0.00;0.00;;;;;;;;;;5048080;28;20196;-76
2021/08/21 14:13:36;;;;;;;0.00;0.00;;;;;;;;;;5041939;28;20207;-76
2021/08/21 14:16:04;;;;;;;0.00;0.00;;;;;;;;;;5043412;28;20211;-75
2021/08/21 14:18:31;;;;;;;0.00;0.00;;;;;;;;;;5052495;28;20199;-75
2021/08/21 14:20:59;;;;;;;0.00;0.00;;;;;;;;;;5045091;28;20204;-76
2021/08/21 14:23:26;;;;;;;0.00;0.00;;;;;;;;;;5047565;28;20241;-74
2021/08/21 14:25:55;;;;;;;0.00;0.00;;;;;;;;;;5048869;28;20688;-80
2021/08/21 14:28:23;;;;;;;0.00;0.00;;;;;;;;;;5036974;28;20215;-77
2021/08/21 14:30:50;;;;;;;0.00;0.00;;;;;;;;;;5041470;28;20283;-77
2021/08/21 14:33:18;;;;;;;0.00;0.00;;;;;;;;;;5048273;28;20200;-77
2021/08/21 14:35:45;;;;;;;0.00;0.00;;;;;;;;;;5045420;28;20631;-81
2021/08/21 14:38:12;;;;;;;0.00;0.00;;;;;;;;;;5042233;28;20781;-77
2021/08/21 14:40:40;;;;;;;0.00;0.00;;;;;;;;;;5039296;28;20216;-78
2021/08/21 14:43:09;;;;;;;0.00;0.00;;;;;;;;;;5050538;28;20641;-78
2021/08/21 14:45:36;;;;;;;0.00;0.00;;;;;;;;;;5046864;28;20211;-75
2021/08/21 14:48:04;;;;;;;0.00;0.00;;;;;;;;;;5044335;28;20215;-80
2021/08/21 14:50:32;;;;;;;0.00;0.00;;;;;;;;;;5046906;28;20585;-76
2021/08/21 14:53:00;;;;;;;0.00;0.00;;;;;;;;;;5042102;28;20199;-76